Time;durP1;ratioP1;P1;durP2;ratioP2;P2;SDS_P1;SDS_P2;PMS_P1;PMS_P2;Temp;Humidity;BMP_temperature;BMP_pressure;BME280_temperature;BME280_humidity;BME280_pressure;Samples;Min_cycle;Max_cycle;Signal;HPM_P1;HPM_P2
2024/03/22 00:00:59;;;;;;;10.20;10.00;;;;;;;;;;4902760;29;20455;-74
2024/03/22 00:03:26;;;;;;;10.30;10.10;;;;;;;;;;4898444;29;20504;-74
2024/03/22 00:05:59;;;;;;;10.33;10.13;;;;;;;;;;4901928;29;20477;-74
2024/03/22 00:08:27;;;;;;;9.80;9.60;;;;;;;;;;4907152;29;20974;-75
2024/03/22 00:10:57;;;;;;;9.80;9.60;;;;;;;;;;4909031;29;20463;-74
2024/03/22 00:13:23;;;;;;;10.50;10.30;;;;;;;;;;4909178;29;20974;-74
2024/03/22 00:15:52;;;;;;;9.93;9.73;;;;;;;;;;4906301;29;20466;-75
2024/03/22 00:21:09;;;;;;;10.50;10.30;;;;;;;;;;4889815;29;20470;-76
2024/03/22 00:23:55;;;;;;;10.47;10.27;;;;;;;;;;4910836;29;20476;-74
2024/03/22 00:26:30;;;;;;;10.50;10.30;;;;;;;;;;4903997;29;20997;-74
2024/03/22 00:29:08;;;;;;;10.50;10.30;;;;;;;;;;4899277;29;20495;-74
2024/03/22 00:34:19;;;;;;;9.97;9.77;;;;;;;;;;4905356;29;20473;-75
2024/03/22 00:37:10;;;;;;;10.90;10.60;;;;;;;;;;4902741;29;20467;-73
2024/03/22 00:39:54;;;;;;;10.10;9.90;;;;;;;;;;4907043;29;20567;-77
2024/03/22 00:42:30;;;;;;;10.57;10.37;;;;;;;;;;4892552;29;20535;-76
2024/03/22 00:45:03;;;;;;;9.97;9.77;;;;;;;;;;4898680;29;20483;-74
2024/03/22 00:47:43;;;;;;;10.30;10.10;;;;;;;;;;4904411;29;20963;-74
2024/03/22 00:50:20;;;;;;;10.77;10.53;;;;;;;;;;4902744;29;20553;-74
2024/03/22 00:53:05;;;;;;;10.30;10.10;;;;;;;;;;4910910;29;20565;-75
2024/03/22 00:55:37;;;;;;;10.50;10.30;;;;;;;;;;4895218;29;21096;-74
2024/03/22 00:58:11;;;;;;;10.77;10.50;;;;;;;;;;4909320;29;20568;-74
2024/03/22 01:00:46;;;;;;;11.00;10.70;;;;;;;;;;4902029;29;20526;-75
2024/03/22 01:03:27;;;;;;;10.87;10.57;;;;;;;;;;4903814;29;20908;-77
2024/03/22 01:05:56;;;;;;;10.90;10.60;;;;;;;;;;4886139;29;20770;-76
2024/03/22 01:08:25;;;;;;;10.53;10.33;;;;;;;;;;4900586;29;20559;-78
2024/03/22 01:10:53;;;;;;;10.40;10.20;;;;;;;;;;4901252;29;20527;-75
2024/03/22 01:13:35;;;;;;;10.33;10.13;;;;;;;;;;4905483;29;20472;-74
2024/03/22 01:16:14;;;;;;;10.00;9.80;;;;;;;;;;4910481;29;20819;-74
2024/03/22 01:18:42;;;;;;;10.57;10.37;;;;;;;;;;4900259;29;20470;-78
2024/03/22 01:21:32;;;;;;;10.30;10.10;;;;;;;;;;4907982;29;21030;-73
2024/03/22 01:24:17;;;;;;;10.23;10.03;;;;;;;;;;4909241;29;20465;-75
2024/03/22 01:27:03;;;;;;;10.33;10.13;;;;;;;;;;4907464;29;20956;-73
2024/03/22 01:29:32;;;;;;;10.13;9.93;;;;;;;;;;4910761;29;20604;-76
2024/03/22 01:32:14;;;;;;;10.37;10.17;;;;;;;;;;4912420;29;20472;-74
2024/03/22 01:34:44;;;;;;;10.43;10.23;;;;;;;;;;4914750;29;20469;-77
2024/03/22 01:37:13;;;;;;;10.20;10.00;;;;;;;;;;4900597;29;20495;-77
2024/03/22 01:39:39;;;;;;;10.13;9.93;;;;;;;;;;4900745;29;20983;-77
2024/03/22 01:42:16;;;;;;;10.03;9.83;;;;;;;;;;4898450;29;20699;-75
2024/03/22 01:44:48;;;;;;;9.80;9.60;;;;;;;;;;4898179;29;20845;-77
2024/03/22 01:47:18;;;;;;;9.73;9.53;;;;;;;;;;4906653;29;20564;-75
2024/03/22 01:49:47;;;;;;;9.60;9.40;;;;;;;;;;4903013;29;20503;-76
2024/03/22 01:52:17;;;;;;;9.20;9.00;;;;;;;;;;4899341;29;20801;-79
2024/03/22 01:54:46;;;;;;;9.70;9.50;;;;;;;;;;4912248;29;20497;-75
2024/03/22 01:57:15;;;;;;;9.67;9.47;;;;;;;;;;4909701;29;21079;-79
2024/03/22 01:59:42;;;;;;;9.50;9.30;;;;;;;;;;4898898;29;20861;-75
2024/03/22 02:02:18;;;;;;;9.87;9.67;;;;;;;;;;4907979;29;20475;-78
2024/03/22 02:04:52;;;;;;;10.20;10.00;;;;;;;;;;4909157;29;20488;-77
2024/03/22 02:07:21;;;;;;;9.77;9.57;;;;;;;;;;4896816;29;20477;-76
2024/03/22 02:09:58;;;;;;;9.83;9.63;;;;;;;;;;4909829;29;20850;-76
2024/03/22 02:12:38;;;;;;;9.60;9.40;;;;;;;;;;4907498;29;21090;-74
2024/03/22 02:15:09;;;;;;;9.30;9.10;;;;;;;;;;4901901;29;20467;-73
2024/03/22 02:20:31;;;;;;;9.77;9.57;;;;;;;;;;4901458;29;20475;-73
2024/03/22 02:23:00;;;;;;;9.10;8.90;;;;;;;;;;4899567;29;20510;-73
2024/03/22 02:25:42;;;;;;;9.60;9.40;;;;;;;;;;4899940;29;20509;-73
2024/03/22 02:28:46;;;;;;;9.63;9.43;;;;;;;;;;4911393;29;20465;-74
2024/03/22 02:34:29;;;;;;;10.00;9.80;;;;;;;;;;4908835;29;20469;-73
2024/03/22 02:37:00;;;;;;;9.50;9.30;;;;;;;;;;4898989;29;20463;-74
2024/03/22 02:39:52;;;;;;;9.50;9.30;;;;;;;;;;4906044;29;20589;-74
2024/03/22 02:45:51;;;;;;;9.90;9.70;;;;;;;;;;4897894;29;20989;-77
2024/03/22 02:48:35;;;;;;;10.23;10.03;;;;;;;;;;4904284;29;20830;-74
2024/03/22 02:51:23;;;;;;;9.20;9.00;;;;;;;;;;4901085;29;20506;-76
2024/03/22 02:54:08;;;;;;;9.73;9.53;;;;;;;;;;4901127;29;20925;-74
2024/03/22 02:56:45;;;;;;;9.60;9.40;;;;;;;;;;4892561;29;20487;-74
2024/03/22 02:59:25;;;;;;;9.60;9.40;;;;;;;;;;4900121;29;20797;-75
2024/03/22 03:02:10;;;;;;;9.70;9.50;;;;;;;;;;4908765;29;20566;-76
2024/03/22 03:07:26;;;;;;;10.23;10.03;;;;;;;;;;4899671;29;20552;-77
2024/03/22 03:10:06;;;;;;;10.40;10.20;;;;;;;;;;4897579;29;20607;-74
2024/03/22 03:12:38;;;;;;;9.20;9.00;;;;;;;;;;4906223;29;20477;-74
2024/03/22 03:17:55;;;;;;;9.83;9.63;;;;;;;;;;4889832;29;20461;-74
2024/03/22 03:20:23;;;;;;;9.30;9.10;;;;;;;;;;4910641;29;21070;-74
2024/03/22 03:23:19;;;;;;;8.93;8.77;;;;;;;;;;4893484;29;20841;-74
2024/03/22 03:26:00;;;;;;;9.80;9.60;;;;;;;;;;4908891;29;20458;-76
2024/03/22 03:28:35;;;;;;;9.10;8.90;;;;;;;;;;4897397;29;20981;-74
2024/03/22 03:31:09;;;;;;;9.77;9.57;;;;;;;;;;4896215;29;20484;-74
2024/03/22 03:33:50;;;;;;;10.23;10.03;;;;;;;;;;4899614;29;20466;-76
2024/03/22 03:36:36;;;;;;;9.60;9.40;;;;;;;;;;4903079;29;20477;-74
2024/03/22 03:39:15;;;;;;;9.90;9.70;;;;;;;;;;4901877;29;20469;-74
2024/03/22 03:41:54;;;;;;;9.50;9.30;;;;;;;;;;4898688;29;20498;-76
2024/03/22 03:44:49;;;;;;;8.70;8.60;;;;;;;;;;4909339;29;20481;-76
2024/03/22 03:47:50;;;;;;;9.13;8.93;;;;;;;;;;4909423;29;20974;-74
2024/03/22 03:50:39;;;;;;;8.70;8.60;;;;;;;;;;4879799;29;20522;-74
2024/03/22 03:53:16;;;;;;;9.07;8.87;;;;;;;;;;4911158;29;20531;-74
2024/03/22 03:55:45;;;;;;;9.30;9.10;;;;;;;;;;4902009;29;20504;-73
2024/03/22 03:58:11;;;;;;;9.30;9.10;;;;;;;;;;4909517;29;20946;-77
2024/03/22 04:00:40;;;;;;;8.60;8.50;;;;;;;;;;4902208;29;20469;-74
2024/03/22 04:03:07;;;;;;;9.07;8.87;;;;;;;;;;4906197;29;20525;-78
2024/03/22 04:05:39;;;;;;;8.90;8.70;;;;;;;;;;4899119;29;20455;-73
2024/03/22 04:08:09;;;;;;;9.37;9.17;;;;;;;;;;4892392;29;20545;-73
2024/03/22 04:10:39;;;;;;;9.67;9.47;;;;;;;;;;4902814;29;20595;-76
2024/03/22 04:13:12;;;;;;;9.50;9.30;;;;;;;;;;4902578;29;20571;-76
2024/03/22 04:15:46;;;;;;;9.90;9.70;;;;;;;;;;4903328;29;20496;-76
2024/03/22 04:18:12;;;;;;;9.17;8.97;;;;;;;;;;4902369;29;20511;-74
2024/03/22 04:20:45;;;;;;;10.07;9.87;;;;;;;;;;4911083;29;20567;-73
2024/03/22 04:23:17;;;;;;;10.20;10.00;;;;;;;;;;4901276;29;20458;-74
2024/03/22 04:25:54;;;;;;;10.30;10.10;;;;;;;;;;4899298;29;21042;-76
2024/03/22 04:28:22;;;;;;;10.60;10.40;;;;;;;;;;4898948;29;20493;-74
2024/03/22 04:31:08;;;;;;;10.50;10.30;;;;;;;;;;4899393;29;20499;-74
2024/03/22 04:33:47;;;;;;;10.80;10.57;;;;;;;;;;4903505;29;21034;-76
2024/03/22 04:36:40;;;;;;;10.50;10.30;;;;;;;;;;4904618;29;20469;-74
2024/03/22 04:42:34;;;;;;;10.97;10.67;;;;;;;;;;4854804;29;20972;-76
2024/03/22 04:45:18;;;;;;;10.80;10.60;;;;;;;;;;4899069;29;20550;-73
2024/03/22 04:47:52;;;;;;;11.17;10.87;;;;;;;;;;4908090;29;20837;-77
2024/03/22 04:53:56;;;;;;;11.20;10.90;;;;;;;;;;4905202;29;20463;-74
2024/03/22 04:56:51;;;;;;;11.50;11.20;;;;;;;;;;4894013;29;21031;-73
2024/03/22 05:06:29;;;;;;;11.20;10.90;;;;;;;;;;4895634;29;20976;-74
2024/03/22 05:24:37;;;;;;;11.90;11.60;;;;;;;;;;4746657;30;20482;-74
2024/03/22 05:27:21;;;;;;;12.27;11.97;;;;;;;;;;4729661;30;20575;-74
2024/03/22 06:44:29;;;;;;;12.47;12.13;;;;;;;;;;4800711;29;20613;-75
2024/03/22 10:33:51;;;;;;;14.30;13.80;;;;;;;;;;4792105;29;20479;-74
2024/03/22 10:36:54;;;;;;;14.07;13.57;;;;;;;;;;4825488;29;20469;-76
2024/03/22 10:39:42;;;;;;;14.40;13.90;;;;;;;;;;4861092;29;20857;-74
2024/03/22 10:42:35;;;;;;;13.90;13.50;;;;;;;;;;4915307;28;20463;-74
2024/03/22 10:45:27;;;;;;;;;;;;;;;;;;;;;
2024/03/22 10:48:06;;;;;;;14.50;14.00;;;;;;;;;;4953795;28;20540;-77
2024/03/22 10:50:35;;;;;;;13.97;13.53;;;;;;;;;;4953934;28;20494;-80
2024/03/22 10:53:10;;;;;;;13.90;13.50;;;;;;;;;;4951131;28;21026;-77
2024/03/22 10:56:01;;;;;;;14.13;13.70;;;;;;;;;;4954058;28;20463;-78
2024/03/22 10:58:43;;;;;;;14.20;13.70;;;;;;;;;;4950430;28;20823;-75
2024/03/22 11:01:36;;;;;;;14.20;13.70;;;;;;;;;;4949158;28;20464;-76
2024/03/22 11:04:06;;;;;;;14.13;13.63;;;;;;;;;;4954754;28;20482;-76
2024/03/22 11:06:49;;;;;;;13.93;13.53;;;;;;;;;;4953913;28;20528;-74
2024/03/22 11:09:23;;;;;;;14.60;14.10;;;;;;;;;;4944711;28;20842;-80
2024/03/22 11:12:01;;;;;;;14.33;13.83;;;;;;;;;;4952300;28;20582;-74
2024/03/22 11:14:29;;;;;;;14.03;13.63;;;;;;;;;;4946149;28;20503;-78
2024/03/22 11:16:57;;;;;;;14.30;13.80;;;;;;;;;;4954127;28;20824;-76
2024/03/22 11:19:23;;;;;;;14.00;13.60;;;;;;;;;;4952695;28;20492;-74
2024/03/22 11:21:52;;;;;;;14.97;14.47;;;;;;;;;;4953130;28;20483;-74
2024/03/22 11:24:19;;;;;;;14.00;13.60;;;;;;;;;;4951219;28;20882;-76
2024/03/22 11:26:46;;;;;;;14.07;13.67;;;;;;;;;;4951649;28;20529;-76
2024/03/22 11:29:22;;;;;;;14.40;13.90;;;;;;;;;;4951594;28;20468;-78
2024/03/22 11:32:03;;;;;;;13.80;13.40;;;;;;;;;;4949387;28;20510;-74
2024/03/22 11:34:30;;;;;;;14.30;13.80;;;;;;;;;;4953002;28;20488;-74
2024/03/22 11:37:10;;;;;;;14.50;14.00;;;;;;;;;;4949057;28;20983;-77
2024/03/22 11:39:36;;;;;;;14.50;14.00;;;;;;;;;;4954769;28;20470;-78
2024/03/22 11:42:05;;;;;;;14.27;13.77;;;;;;;;;;4951048;28;20552;-78
2024/03/22 11:44:41;;;;;;;14.37;13.87;;;;;;;;;;4949825;28;20474;-76
2024/03/22 11:47:09;;;;;;;14.03;13.63;;;;;;;;;;4949867;28;20512;-77
2024/03/22 11:49:35;;;;;;;14.13;13.73;;;;;;;;;;4946197;28;20464;-74
2024/03/22 11:52:02;;;;;;;13.90;13.50;;;;;;;;;;4952326;28;20552;-77
2024/03/22 11:54:29;;;;;;;13.93;13.53;;;;;;;;;;4947362;28;20515;-74
2024/03/22 11:56:58;;;;;;;14.20;13.70;;;;;;;;;;4953499;28;20490;-78
2024/03/22 11:59:24;;;;;;;13.87;13.47;;;;;;;;;;4950557;28;21007;-77
2024/03/22 12:01:53;;;;;;;13.67;13.27;;;;;;;;;;4952846;28;20978;-78
2024/03/22 12:04:20;;;;;;;14.43;13.93;;;;;;;;;;4948398;28;20490;-74
2024/03/22 12:06:47;;;;;;;14.20;13.80;;;;;;;;;;4949462;28;20470;-79
2024/03/22 12:09:17;;;;;;;14.60;14.10;;;;;;;;;;4947878;28;20548;-75
2024/03/22 12:11:44;;;;;;;13.70;13.30;;;;;;;;;;4953020;28;20517;-78
2024/03/22 12:14:10;;;;;;;13.70;13.30;;;;;;;;;;4952416;28;20990;-74
2024/03/22 12:16:40;;;;;;;14.10;13.70;;;;;;;;;;4949691;28;20479;-75
2024/03/22 12:19:11;;;;;;;14.80;14.30;;;;;;;;;;4948696;28;20917;-73
2024/03/22 12:21:38;;;;;;;15.00;14.50;;;;;;;;;;4952152;28;20554;-77
2024/03/22 12:24:05;;;;;;;15.70;15.20;;;;;;;;;;4953460;28;20471;-73
2024/03/22 12:26:32;;;;;;;15.60;15.10;;;;;;;;;;4952712;28;20976;-76
2024/03/22 12:28:58;;;;;;;15.30;14.80;;;;;;;;;;4947799;28;20496;-76
2024/03/22 12:31:27;;;;;;;15.30;14.80;;;;;;;;;;4952885;28;20929;-78
2024/03/22 12:33:53;;;;;;;15.37;14.87;;;;;;;;;;4945202;28;20475;-74
2024/03/22 12:36:22;;;;;;;15.20;14.70;;;;;;;;;;4950765;28;20539;-74
2024/03/22 12:38:50;;;;;;;15.90;15.40;;;;;;;;;;4948914;28;20498;-76
2024/03/22 12:41:18;;;;;;;15.60;15.10;;;;;;;;;;4947927;28;20474;-75
2024/03/22 12:43:45;;;;;;;15.23;14.73;;;;;;;;;;4951512;28;20476;-74
2024/03/22 12:46:13;;;;;;;15.33;14.83;;;;;;;;;;4953573;28;20492;-73
2024/03/22 12:48:41;;;;;;;15.27;14.77;;;;;;;;;;4949707;28;21028;-73
2024/03/22 12:51:08;;;;;;;14.80;14.30;;;;;;;;;;4948964;28;20489;-78
2024/03/22 12:53:37;;;;;;;15.40;14.90;;;;;;;;;;4948619;28;21334;-75
2024/03/22 12:56:04;;;;;;;14.70;14.20;;;;;;;;;;4951272;28;20464;-73
2024/03/22 12:58:31;;;;;;;15.00;14.50;;;;;;;;;;4952662;28;20602;-73
2024/03/22 13:00:58;;;;;;;15.10;14.60;;;;;;;;;;4952478;28;20472;-73
2024/03/22 13:03:26;;;;;;;14.83;14.33;;;;;;;;;;4948353;28;20496;-73
2024/03/22 13:05:55;;;;;;;14.23;13.73;;;;;;;;;;4953228;28;20544;-73
2024/03/22 13:08:24;;;;;;;14.00;13.57;;;;;;;;;;4949112;28;20469;-73
2024/03/22 13:10:52;;;;;;;13.87;13.47;;;;;;;;;;4949182;28;20487;-78
2024/03/22 13:13:20;;;;;;;14.70;14.20;;;;;;;;;;4949945;28;20473;-73
2024/03/22 13:15:46;;;;;;;14.73;14.23;;;;;;;;;;4950811;28;21040;-73
2024/03/22 13:18:14;;;;;;;13.73;13.33;;;;;;;;;;4949734;28;20469;-76
2024/03/22 13:20:40;;;;;;;13.83;13.43;;;;;;;;;;4954774;28;20588;-73
2024/03/22 13:23:09;;;;;;;13.67;13.27;;;;;;;;;;4955645;28;20471;-77
2024/03/22 13:25:36;;;;;;;14.00;13.60;;;;;;;;;;4950828;28;20462;-77
2024/03/22 13:28:08;;;;;;;14.43;13.93;;;;;;;;;;4956228;28;20465;-73
2024/03/22 13:30:35;;;;;;;14.17;13.77;;;;;;;;;;4956122;28;20575;-73
2024/03/22 13:33:05;;;;;;;13.80;13.40;;;;;;;;;;4949740;28;20470;-75
2024/03/22 13:35:33;;;;;;;14.00;13.60;;;;;;;;;;4955676;28;20462;-73
2024/03/22 13:38:01;;;;;;;14.50;14.00;;;;;;;;;;4951247;28;20475;-72
2024/03/22 13:40:30;;;;;;;13.87;13.47;;;;;;;;;;4952055;28;20978;-73
2024/03/22 13:42:58;;;;;;;14.50;14.00;;;;;;;;;;4949350;28;20470;-77
2024/03/22 13:45:27;;;;;;;14.00;13.60;;;;;;;;;;4954833;28;20481;-73
2024/03/22 13:47:54;;;;;;;13.67;13.27;;;;;;;;;;4954158;28;20477;-73
2024/03/22 13:50:22;;;;;;;14.00;13.60;;;;;;;;;;4951041;28;20469;-73
2024/03/22 13:52:49;;;;;;;13.57;13.17;;;;;;;;;;4952458;28;20494;-75
2024/03/22 13:55:16;;;;;;;14.07;13.67;;;;;;;;;;4952178;28;20982;-74
2024/03/22 13:57:42;;;;;;;14.00;13.60;;;;;;;;;;4951671;28;20491;-76
2024/03/22 14:00:14;;;;;;;14.57;14.07;;;;;;;;;;4948909;28;20469;-76
2024/03/22 14:02:44;;;;;;;14.23;13.73;;;;;;;;;;4955458;28;20463;-74
2024/03/22 14:05:11;;;;;;;14.67;14.17;;;;;;;;;;4950271;28;20524;-74
2024/03/22 14:07:40;;;;;;;14.70;14.20;;;;;;;;;;4948062;28;20465;-74
2024/03/22 14:10:08;;;;;;;14.80;14.30;;;;;;;;;;4951621;28;20469;-73
2024/03/22 14:12:34;;;;;;;14.30;13.80;;;;;;;;;;4951512;28;20539;-78
2024/03/22 14:15:02;;;;;;;13.77;13.37;;;;;;;;;;4951540;28;20468;-75
2024/03/22 14:17:28;;;;;;;13.53;13.13;;;;;;;;;;4949706;28;20476;-73
2024/03/22 14:19:57;;;;;;;13.40;13.00;;;;;;;;;;4954530;28;20996;-73
2024/03/22 14:22:24;;;;;;;14.27;13.77;;;;;;;;;;4949684;28;20476;-73
2024/03/22 14:24:52;;;;;;;14.40;13.90;;;;;;;;;;4953722;28;20459;-75
2024/03/22 14:27:18;;;;;;;13.83;13.43;;;;;;;;;;4952963;28;20596;-75
2024/03/22 14:29:47;;;;;;;13.53;13.13;;;;;;;;;;4944268;28;20481;-78
2024/03/22 14:32:14;;;;;;;13.47;13.07;;;;;;;;;;4954568;28;21015;-73
2024/03/22 14:34:42;;;;;;;13.70;13.30;;;;;;;;;;4948647;28;20881;-74
2024/03/22 14:37:09;;;;;;;13.93;13.53;;;;;;;;;;4950806;28;21096;-74
2024/03/22 14:39:37;;;;;;;13.40;13.00;;;;;;;;;;4951859;28;20468;-74
2024/03/22 14:42:05;;;;;;;13.50;13.10;;;;;;;;;;4953937;28;20477;-75
2024/03/22 14:44:32;;;;;;;13.63;13.23;;;;;;;;;;4953379;28;20483;-76
2024/03/22 14:46:59;;;;;;;13.20;12.80;;;;;;;;;;4945936;28;21082;-77
2024/03/22 14:49:26;;;;;;;13.57;13.17;;;;;;;;;;4950809;28;20472;-78
2024/03/22 14:51:52;;;;;;;13.27;12.87;;;;;;;;;;4951149;28;20483;-73
2024/03/22 14:54:37;;;;;;;12.97;12.57;;;;;;;;;;4951017;28;20464;-73
2024/03/22 14:57:04;;;;;;;12.60;12.20;;;;;;;;;;4952589;28;20496;-78
2024/03/22 14:59:33;;;;;;;12.17;11.87;;;;;;;;;;4949594;28;20483;-76
2024/03/22 15:02:00;;;;;;;12.67;12.27;;;;;;;;;;4951919;28;20476;-77
2024/03/22 15:04:29;;;;;;;12.70;12.30;;;;;;;;;;4951099;28;20586;-74
2024/03/22 15:06:56;;;;;;;13.10;12.70;;;;;;;;;;4953343;28;20472;-79
2024/03/22 15:09:45;;;;;;;11.90;11.60;;;;;;;;;;4948009;28;20460;-74
2024/03/22 15:12:28;;;;;;;10.90;10.60;;;;;;;;;;4952386;28;20542;-75
2024/03/22 15:15:10;;;;;;;9.30;9.10;;;;;;;;;;4952793;28;20991;-79
2024/03/22 15:17:38;;;;;;;9.43;9.23;;;;;;;;;;4948040;28;20580;-75
2024/03/22 15:20:05;;;;;;;9.80;9.60;;;;;;;;;;4947884;28;20465;-74
2024/03/22 15:22:33;;;;;;;9.30;9.10;;;;;;;;;;4951544;28;20469;-74
2024/03/22 15:24:59;;;;;;;8.80;8.63;;;;;;;;;;4953266;28;20477;-73
2024/03/22 15:27:28;;;;;;;7.80;7.70;;;;;;;;;;4953137;28;20949;-73
2024/03/22 15:29:54;;;;;;;8.37;8.27;;;;;;;;;;4950779;28;20562;-71
2024/03/22 15:32:23;;;;;;;7.50;7.40;;;;;;;;;;4950834;28;20499;-71
2024/03/22 15:34:50;;;;;;;6.90;6.80;;;;;;;;;;4949846;28;20890;-73
2024/03/22 15:37:17;;;;;;;6.43;6.33;;;;;;;;;;4947316;28;20544;-72
2024/03/22 15:39:43;;;;;;;6.70;6.60;;;;;;;;;;4950205;28;20892;-71
2024/03/22 15:42:11;;;;;;;5.87;5.77;;;;;;;;;;4947553;28;20468;-71
2024/03/22 15:44:38;;;;;;;5.90;5.80;;;;;;;;;;4944688;28;20834;-71
2024/03/22 15:47:06;;;;;;;6.03;5.93;;;;;;;;;;4950612;28;20474;-71
2024/03/22 15:49:32;;;;;;;5.67;5.57;;;;;;;;;;4949754;28;20563;-70
2024/03/22 15:51:59;;;;;;;5.83;5.73;;;;;;;;;;4950286;28;20508;-69
2024/03/22 15:54:25;;;;;;;4.90;4.90;;;;;;;;;;4950235;28;20476;-71
2024/03/22 15:56:52;;;;;;;5.50;5.40;;;;;;;;;;4950642;28;20502;-71
2024/03/22 15:59:19;;;;;;;4.80;4.80;;;;;;;;;;4952262;28;20472;-71
2024/03/22 16:01:47;;;;;;;5.20;5.10;;;;;;;;;;4951651;28;20957;-70
2024/03/22 16:04:13;;;;;;;4.63;4.63;;;;;;;;;;4949076;28;20505;-71
2024/03/22 16:06:41;;;;;;;4.67;4.67;;;;;;;;;;4951048;28;20575;-71
2024/03/22 16:09:09;;;;;;;4.30;4.30;;;;;;;;;;4951756;28;20468;-70
2024/03/22 16:11:36;;;;;;;4.80;4.80;;;;;;;;;;4950683;28;20510;-71
2024/03/22 16:14:02;;;;;;;3.90;3.90;;;;;;;;;;4941380;28;20871;-71
2024/03/22 16:16:30;;;;;;;3.90;3.90;;;;;;;;;;4952465;28;20476;-70
2024/03/22 16:18:57;;;;;;;4.20;4.20;;;;;;;;;;4950390;28;20482;-70
2024/03/22 16:21:24;;;;;;;3.90;3.90;;;;;;;;;;4945844;28;20590;-71
2024/03/22 16:23:51;;;;;;;4.40;4.40;;;;;;;;;;4954982;28;21016;-71
2024/03/22 16:26:18;;;;;;;4.47;4.47;;;;;;;;;;4946652;28;20619;-71
2024/03/22 16:28:44;;;;;;;4.70;4.70;;;;;;;;;;4950242;28;20972;-70
2024/03/22 16:31:11;;;;;;;5.20;5.10;;;;;;;;;;4949054;28;20475;-70
2024/03/22 16:33:37;;;;;;;5.73;5.63;;;;;;;;;;4946011;28;20476;-71
2024/03/22 16:36:06;;;;;;;6.10;6.00;;;;;;;;;;4947035;28;20470;-71
2024/03/22 16:38:32;;;;;;;6.33;6.23;;;;;;;;;;4947704;28;20472;-71
2024/03/22 16:40:59;;;;;;;7.30;7.20;;;;;;;;;;4947617;28;20469;-71
2024/03/22 16:43:26;;;;;;;8.33;8.23;;;;;;;;;;4954229;28;20560;-70
2024/03/22 16:45:53;;;;;;;11.70;11.40;;;;;;;;;;4947438;28;20546;-71
2024/03/22 16:48:19;;;;;;;12.37;12.07;;;;;;;;;;4956050;28;20554;-71
2024/03/22 16:50:47;;;;;;;13.50;13.10;;;;;;;;;;4949416;28;20478;-70
2024/03/22 16:53:17;;;;;;;14.47;14.07;;;;;;;;;;4955568;28;20508;-70
2024/03/22 16:55:44;;;;;;;14.63;14.23;;;;;;;;;;4955771;28;20472;-71
2024/03/22 16:58:10;;;;;;;15.70;15.20;;;;;;;;;;4963924;28;20521;-71
2024/03/22 17:00:38;;;;;;;15.63;15.13;;;;;;;;;;4961484;28;20480;-72
2024/03/22 17:03:04;;;;;;;16.77;16.27;;;;;;;;;;4967102;28;20477;-72
2024/03/22 17:05:32;;;;;;;17.47;16.87;;;;;;;;;;4965082;28;20559;-70
2024/03/22 17:07:59;;;;;;;17.67;17.07;;;;;;;;;;4961151;28;20464;-71
2024/03/22 17:10:27;;;;;;;19.07;18.37;;;;;;;;;;4958753;28;20466;-71
2024/03/22 17:12:53;;;;;;;18.87;18.17;;;;;;;;;;4961496;28;20969;-71
2024/03/22 17:15:21;;;;;;;18.80;18.10;;;;;;;;;;4967130;28;20506;-71
2024/03/22 17:17:47;;;;;;;18.70;18.00;;;;;;;;;;4965938;28;20556;-71
2024/03/22 17:20:15;;;;;;;19.63;18.93;;;;;;;;;;4963394;28;20577;-70
2024/03/22 17:22:42;;;;;;;19.43;18.73;;;;;;;;;;4967471;28;21035;-70
2024/03/22 17:25:09;;;;;;;20.07;19.37;;;;;;;;;;4963811;28;21096;-71
2024/03/22 17:27:37;;;;;;;22.07;21.17;;;;;;;;;;4964848;28;20551;-70
2024/03/22 17:30:04;;;;;;;21.60;20.80;;;;;;;;;;4968654;28;20469;-70
2024/03/22 17:32:31;;;;;;;22.40;21.50;;;;;;;;;;4960907;28;20494;-71
2024/03/22 17:34:58;;;;;;;22.47;21.57;;;;;;;;;;4965088;28;21240;-71
2024/03/22 17:37:24;;;;;;;22.93;22.03;;;;;;;;;;4970489;28;20877;-72
2024/03/22 17:39:51;;;;;;;21.97;21.17;;;;;;;;;;4962076;28;20468;-71
2024/03/22 17:42:18;;;;;;;21.63;20.83;;;;;;;;;;4954938;28;20562;-70
2024/03/22 17:44:46;;;;;;;22.70;21.80;;;;;;;;;;4969338;28;21116;-72
2024/03/22 17:47:13;;;;;;;23.93;23.03;;;;;;;;;;4959090;28;20463;-72
2024/03/22 17:49:40;;;;;;;23.70;22.80;;;;;;;;;;4958416;28;20557;-71
2024/03/22 17:52:06;;;;;;;24.47;23.57;;;;;;;;;;4964120;28;21011;-71
2024/03/22 17:54:33;;;;;;;24.43;23.53;;;;;;;;;;4956143;28;21089;-69
2024/03/22 17:56:59;;;;;;;23.60;22.70;;;;;;;;;;4964727;28;20490;-70
2024/03/22 17:59:27;;;;;;;24.03;23.13;;;;;;;;;;4968291;28;20475;-70
2024/03/22 18:01:54;;;;;;;25.00;24.10;;;;;;;;;;4960603;28;20477;-69
2024/03/22 18:04:22;;;;;;;23.93;23.03;;;;;;;;;;4964666;28;20484;-70
2024/03/22 18:06:48;;;;;;;24.63;23.73;;;;;;;;;;4963574;28;20470;-71
2024/03/22 18:09:16;;;;;;;25.13;24.23;;;;;;;;;;4956707;28;20855;-70
2024/03/22 18:11:42;;;;;;;23.93;23.03;;;;;;;;;;4961491;28;20581;-70
2024/03/22 18:14:09;;;;;;;25.50;24.57;;;;;;;;;;4959539;28;20473;-71
2024/03/22 18:16:35;;;;;;;23.87;22.97;;;;;;;;;;4961135;28;20469;-72
2024/03/22 18:19:04;;;;;;;22.60;21.80;;;;;;;;;;4959576;28;20469;-69
2024/03/22 18:21:30;;;;;;;22.20;21.40;;;;;;;;;;4957913;28;20466;-70
2024/03/22 18:23:58;;;;;;;20.90;20.20;;;;;;;;;;4958994;28;20742;-71
2024/03/22 18:26:24;;;;;;;21.27;20.57;;;;;;;;;;4963046;28;20801;-70
2024/03/22 18:28:51;;;;;;;21.50;20.77;;;;;;;;;;4963553;28;20474;-71
2024/03/22 18:31:19;;;;;;;21.70;20.97;;;;;;;;;;4955743;28;20469;-71
2024/03/22 18:33:47;;;;;;;21.70;20.90;;;;;;;;;;4959318;28;20641;-72
2024/03/22 18:36:14;;;;;;;22.73;21.93;;;;;;;;;;4962042;28;20559;-70
2024/03/22 18:38:41;;;;;;;21.53;20.83;;;;;;;;;;4951706;28;20603;-71
2024/03/22 18:41:08;;;;;;;21.83;21.13;;;;;;;;;;4960383;28;20480;-70
2024/03/22 18:43:35;;;;;;;20.43;19.73;;;;;;;;;;4947069;28;20561;-72
2024/03/22 18:46:03;;;;;;;21.10;20.40;;;;;;;;;;4952122;28;20557;-70
2024/03/22 18:48:32;;;;;;;20.40;19.70;;;;;;;;;;4952958;28;20487;-71
2024/03/22 18:50:58;;;;;;;20.00;19.40;;;;;;;;;;4957101;28;21035;-71
2024/03/22 18:53:27;;;;;;;20.77;20.07;;;;;;;;;;4956929;28;20497;-72
2024/03/22 18:55:53;;;;;;;20.47;19.77;;;;;;;;;;4956984;28;20474;-73
2024/03/22 18:58:20;;;;;;;21.30;20.60;;;;;;;;;;4953442;28;20489;-71
2024/03/22 19:00:48;;;;;;;20.80;20.10;;;;;;;;;;4957112;28;20578;-72
2024/03/22 19:03:16;;;;;;;20.50;19.80;;;;;;;;;;4955605;28;20509;-71
2024/03/22 19:05:43;;;;;;;19.53;18.93;;;;;;;;;;4956879;28;20502;-71
2024/03/22 19:10:52;;;;;;;19.80;19.10;;;;;;;;;;4950788;28;20463;-70
2024/03/22 19:13:19;;;;;;;21.53;20.77;;;;;;;;;;4956545;28;20495;-70
2024/03/22 19:15:54;;;;;;;21.47;20.77;;;;;;;;;;4952237;28;20569;-71
2024/03/22 19:18:20;;;;;;;21.00;20.30;;;;;;;;;;4958145;28;20569;-70
2024/03/22 19:20:48;;;;;;;21.73;21.00;;;;;;;;;;4952440;28;20468;-70
2024/03/22 19:23:14;;;;;;;19.83;19.20;;;;;;;;;;4964291;28;20546;-71
2024/03/22 19:25:41;;;;;;;20.83;20.13;;;;;;;;;;4954915;28;20472;-71
2024/03/22 19:28:09;;;;;;;20.47;19.77;;;;;;;;;;4950116;28;21302;-70
2024/03/22 19:30:36;;;;;;;18.83;18.23;;;;;;;;;;4964417;28;20461;-71
2024/03/22 19:33:03;;;;;;;18.80;18.20;;;;;;;;;;4946361;28;20505;-71
2024/03/22 19:35:30;;;;;;;19.20;18.60;;;;;;;;;;4958258;28;20495;-71
2024/03/22 19:37:56;;;;;;;20.03;19.43;;;;;;;;;;4957922;28;20935;-72
2024/03/22 19:40:23;;;;;;;20.80;20.10;;;;;;;;;;4963599;28;20535;-72
2024/03/22 19:42:51;;;;;;;21.07;20.37;;;;;;;;;;4956623;28;20468;-71
2024/03/22 19:45:20;;;;;;;20.93;20.23;;;;;;;;;;4950682;28;20470;-71
2024/03/22 19:47:46;;;;;;;21.43;20.73;;;;;;;;;;4961467;28;20546;-72
2024/03/22 19:50:13;;;;;;;22.30;21.60;;;;;;;;;;4955460;28;20500;-70
2024/03/22 19:52:39;;;;;;;22.73;21.93;;;;;;;;;;4958298;28;20567;-72
2024/03/22 19:55:07;;;;;;;23.63;22.83;;;;;;;;;;4960378;28;20477;-72
2024/03/22 19:57:34;;;;;;;23.97;23.17;;;;;;;;;;4953729;28;20534;-71
2024/03/22 20:00:01;;;;;;;24.83;23.93;;;;;;;;;;4963828;28;20472;-73
2024/03/22 20:02:28;;;;;;;24.63;23.73;;;;;;;;;;4954138;28;20471;-71
2024/03/22 20:04:55;;;;;;;26.13;25.20;;;;;;;;;;4953566;28;20515;-71
2024/03/22 20:07:22;;;;;;;25.57;24.67;;;;;;;;;;4954847;28;20827;-71
2024/03/22 20:09:49;;;;;;;25.47;24.57;;;;;;;;;;4950237;28;20481;-71
2024/03/22 20:12:16;;;;;;;24.90;24.00;;;;;;;;;;4956336;28;20847;-72
2024/03/22 20:14:44;;;;;;;24.33;23.43;;;;;;;;;;4958181;28;20473;-71
2024/03/22 20:17:10;;;;;;;24.17;23.37;;;;;;;;;;4954932;28;20550;-71
2024/03/22 20:19:39;;;;;;;25.07;24.17;;;;;;;;;;4959579;28;20757;-70
2024/03/22 20:22:05;;;;;;;23.73;22.93;;;;;;;;;;4960661;28;20469;-73
2024/03/22 20:24:32;;;;;;;26.43;25.53;;;;;;;;;;4951427;28;20467;-70
2024/03/22 20:26:58;;;;;;;25.70;24.80;;;;;;;;;;4951715;28;20515;-72
2024/03/22 20:29:26;;;;;;;26.13;25.23;;;;;;;;;;4957801;28;20574;-71
2024/03/22 20:31:52;;;;;;;26.87;25.87;;;;;;;;;;4957687;28;20467;-73
2024/03/22 20:34:19;;;;;;;26.57;25.57;;;;;;;;;;4962000;28;20553;-71
2024/03/22 20:36:47;;;;;;;28.20;27.20;;;;;;;;;;4953708;28;20780;-71
2024/03/22 20:39:14;;;;;;;28.13;27.13;;;;;;;;;;4952319;28;20494;-72
2024/03/22 20:41:40;;;;;;;27.37;26.37;;;;;;;;;;4946623;28;20540;-72